createdAt,value
2019-01-28T00:00:15.319Z,2.80
2019-01-28T00:02:42.904Z,2.80
2019-01-28T00:05:10.498Z,2.80
2019-01-28T00:07:38.043Z,2.70
2019-01-28T00:10:05.600Z,2.60
2019-01-28T00:12:33.158Z,2.50
2019-01-28T00:15:00.754Z,2.50
2019-01-28T00:17:28.313Z,2.30
2019-01-28T00:19:56.655Z,2.30
2019-01-28T00:22:24.195Z,2.30
2019-01-28T00:24:51.764Z,2.40
2019-01-28T00:27:19.327Z,2.20
2019-01-28T00:29:46.870Z,2.30
2019-01-28T00:32:14.467Z,2.30
2019-01-28T00:34:42.008Z,2.30
2019-01-28T00:37:09.547Z,2.30
2019-01-28T00:39:37.119Z,2.10
2019-01-28T00:42:04.697Z,2.10
2019-01-28T00:44:33.030Z,2.10
2019-01-28T00:47:00.567Z,2.10
2019-01-28T00:49:28.131Z,2.20
2019-01-28T00:51:55.668Z,2.30
2019-01-28T00:54:24.245Z,2.30
2019-01-28T00:56:51.808Z,2.40
2019-01-28T00:59:19.348Z,2.40
2019-01-28T01:01:47.677Z,2.50
2019-01-28T01:04:15.218Z,2.40
2019-01-28T01:06:42.780Z,2.40
2019-01-28T01:09:10.385Z,2.50
2019-01-28T01:11:37.948Z,2.50
2019-01-28T01:14:05.483Z,2.50
2019-01-28T01:16:33.048Z,2.50
2019-01-28T01:19:00.580Z,2.40
2019-01-28T01:21:28.149Z,2.50
2019-01-28T01:23:56.692Z,2.50
2019-01-28T01:26:24.240Z,2.50
2019-01-28T01:28:51.781Z,2.50
2019-01-28T01:31:19.380Z,2.50
2019-01-28T01:33:47.008Z,2.50
2019-01-28T01:36:14.583Z,2.50
2019-01-28T01:38:42.148Z,2.50
2019-01-28T01:41:09.676Z,2.50
2019-01-28T01:43:37.244Z,2.50
2019-01-28T01:46:04.834Z,2.50
2019-01-28T01:48:32.399Z,2.50
2019-01-28T01:50:59.944Z,2.50
2019-01-28T01:53:27.487Z,2.50
2019-01-28T01:55:55.054Z,2.50
2019-01-28T01:58:22.589Z,2.50
2019-01-28T02:00:50.153Z,2.50
2019-01-28T02:03:17.688Z,2.50
2019-01-28T02:05:45.251Z,2.50
2019-01-28T02:08:12.788Z,2.50
2019-01-28T02:10:40.348Z,2.60
2019-01-28T02:13:07.919Z,2.50
2019-01-28T02:15:36.212Z,2.40
2019-01-28T02:18:03.771Z,2.40
2019-01-28T02:20:31.324Z,2.40
2019-01-28T02:22:58.929Z,2.40
2019-01-28T02:25:26.479Z,2.40
2019-01-28T02:27:54.050Z,2.50
2019-01-28T02:30:21.593Z,2.50
2019-01-28T02:32:49.167Z,2.50
2019-01-28T02:35:16.720Z,2.40
2019-01-28T02:37:44.259Z,2.10
2019-01-28T02:40:14.350Z,2.00
2019-01-28T02:42:41.887Z,1.90
2019-01-28T02:45:09.452Z,1.90
2019-01-28T02:50:12.441Z,1.80
2019-01-28T02:52:39.988Z,1.80
2019-01-28T02:55:07.559Z,2.00
2019-01-28T02:57:35.894Z,2.00
2019-01-28T03:00:03.441Z,2.00
2019-01-28T03:02:31.012Z,1.90
2019-01-28T03:04:58.580Z,1.90
2019-01-28T03:07:26.909Z,2.00
2019-01-28T03:09:54.449Z,2.00
2019-01-28T03:12:22.021Z,1.90
2019-01-28T03:14:49.559Z,2.00
2019-01-28T03:17:17.103Z,1.90
2019-01-28T03:19:45.437Z,1.90
2019-01-28T03:22:13.009Z,1.90
2019-01-28T03:24:40.559Z,2.00
2019-01-28T03:27:08.133Z,2.00
2019-01-28T03:29:36.448Z,2.00
2019-01-28T03:32:04.035Z,2.00
2019-01-28T03:34:31.579Z,2.00
2019-01-28T03:36:59.146Z,2.10
2019-01-28T03:39:26.681Z,2.10
2019-01-28T03:41:54.227Z,2.00
2019-01-28T03:44:21.801Z,2.10
2019-01-28T03:46:49.390Z,2.10
2019-01-28T03:49:17.943Z,2.10
2019-01-28T03:51:45.487Z,2.10
2019-01-28T03:54:13.049Z,2.10
2019-01-28T03:56:40.611Z,2.10
2019-01-28T03:59:08.183Z,2.20
2019-01-28T04:01:35.743Z,2.20
2019-01-28T04:04:03.299Z,2.20
2019-01-28T04:06:30.877Z,2.20
2019-01-28T04:08:58.417Z,2.20
2019-01-28T04:11:25.987Z,2.10
2019-01-28T04:13:53.528Z,2.10
2019-01-28T04:16:21.096Z,2.00
2019-01-28T04:18:48.660Z,2.00
2019-01-28T04:21:16.196Z,2.00
2019-01-28T04:23:43.772Z,1.90
2019-01-28T04:26:11.308Z,1.90
2019-01-28T04:28:38.862Z,1.90
2019-01-28T04:31:06.395Z,1.80
2019-01-28T04:33:33.962Z,1.80
2019-01-28T04:36:01.555Z,1.70
2019-01-28T04:38:29.096Z,1.70
2019-01-28T04:40:56.658Z,1.70
2019-01-28T04:43:24.191Z,1.70
2019-01-28T04:45:51.756Z,1.70
2019-01-28T04:48:19.300Z,1.80
2019-01-28T04:50:46.832Z,1.80
2019-01-28T04:53:15.164Z,1.80
2019-01-28T04:55:42.698Z,1.90
2019-01-28T04:58:10.276Z,1.90
2019-01-28T05:00:37.819Z,1.90
2019-01-28T05:03:05.382Z,1.90
2019-01-28T05:05:32.918Z,2.00
2019-01-28T05:08:00.484Z,2.00
2019-01-28T05:10:28.035Z,2.00
2019-01-28T05:12:55.567Z,2.00
2019-01-28T05:15:23.131Z,2.00
2019-01-28T05:17:50.667Z,2.00
2019-01-28T05:20:19.103Z,2.00
2019-01-28T05:22:46.641Z,2.10
2019-01-28T05:25:14.202Z,2.00
2019-01-28T05:27:41.837Z,2.00
2019-01-28T05:30:09.416Z,2.00
2019-01-28T05:32:36.966Z,2.10
2019-01-28T05:35:04.510Z,2.10
2019-01-28T05:37:32.079Z,2.10
2019-01-28T05:39:59.611Z,2.10
2019-01-28T05:42:27.178Z,2.10
2019-01-28T05:44:54.740Z,2.10
2019-01-28T05:47:22.271Z,2.10
2019-01-28T05:49:49.840Z,2.10
2019-01-28T05:52:17.395Z,2.10
2019-01-28T05:54:45.692Z,2.10
2019-01-28T05:57:13.249Z,2.00
2019-01-28T05:59:40.784Z,2.00
2019-01-28T06:02:08.320Z,2.10
2019-01-28T06:04:35.881Z,2.00
2019-01-28T06:07:03.425Z,2.00
2019-01-28T06:09:30.993Z,2.00
2019-01-28T06:11:58.536Z,2.10
2019-01-28T06:14:26.095Z,2.10
2019-01-28T06:16:53.635Z,2.10
2019-01-28T06:19:21.195Z,2.00
2019-01-28T06:21:48.735Z,2.00
2019-01-28T06:24:16.271Z,2.00
2019-01-28T06:26:44.591Z,2.10
2019-01-28T06:29:12.129Z,2.10
2019-01-28T06:31:39.701Z,2.10
2019-01-28T06:34:07.240Z,2.00
2019-01-28T06:36:35.716Z,2.00
2019-01-28T06:39:03.288Z,2.00
2019-01-28T06:41:30.845Z,2.00
2019-01-28T06:43:58.411Z,1.90
2019-01-28T06:46:25.943Z,1.90
2019-01-28T06:48:53.816Z,1.90
2019-01-28T06:51:21.380Z,1.90
2019-01-28T06:53:48.917Z,1.90
2019-01-28T06:56:16.492Z,1.90
2019-01-28T06:58:44.059Z,2.00
2019-01-28T07:01:11.595Z,1.90
2019-01-28T07:03:40.196Z,1.90
2019-01-28T07:06:07.739Z,1.90
2019-01-28T07:08:35.300Z,1.90
2019-01-28T07:11:02.835Z,1.90
2019-01-28T07:13:31.137Z,1.90
2019-01-28T07:15:58.733Z,1.90
2019-01-28T07:18:26.275Z,1.90
2019-01-28T07:20:53.841Z,1.90
2019-01-28T07:23:21.376Z,2.00
2019-01-28T07:25:48.952Z,2.00
2019-01-28T07:28:16.491Z,1.90
2019-01-28T07:30:44.024Z,2.00
2019-01-28T07:33:11.592Z,2.10
2019-01-28T07:35:39.122Z,2.10
2019-01-28T07:38:06.687Z,2.10
2019-01-28T07:40:34.991Z,2.10
2019-01-28T07:43:02.564Z,2.10
2019-01-28T07:45:30.116Z,2.10
2019-01-28T07:48:02.648Z,2.10
2019-01-28T07:50:25.314Z,2.20
2019-01-28T07:52:52.850Z,2.20
2019-01-28T07:55:20.422Z,2.10
2019-01-28T07:57:47.965Z,2.10
2019-01-28T08:00:19.345Z,2.10
2019-01-28T08:02:45.856Z,2.10
2019-01-28T08:05:13.444Z,2.10
2019-01-28T08:07:40.988Z,2.10
2019-01-28T08:10:08.551Z,2.10
2019-01-28T08:12:36.115Z,2.10
2019-01-28T08:15:03.656Z,2.00
2019-01-28T08:17:31.211Z,2.00
2019-01-28T08:19:58.745Z,2.10
2019-01-28T08:22:27.275Z,2.00
2019-01-28T08:24:54.815Z,2.10
2019-01-28T08:27:22.347Z,2.10
2019-01-28T08:29:49.919Z,2.20
2019-01-28T08:32:17.492Z,2.20
2019-01-28T08:34:45.140Z,2.30
2019-01-28T08:37:13.612Z,2.30
2019-01-28T08:39:42.878Z,2.50
2019-01-28T08:42:08.748Z,2.60
2019-01-28T08:44:36.312Z,2.70
2019-01-28T08:47:03.881Z,2.80
2019-01-28T08:49:31.448Z,3.10
2019-01-28T08:51:58.980Z,2.90
2019-01-28T08:54:26.553Z,3.00
2019-01-28T08:56:54.091Z,2.90
2019-01-28T08:59:21.633Z,3.00
2019-01-28T09:01:49.192Z,2.90
2019-01-28T09:04:16.743Z,2.80
2019-01-28T09:06:44.306Z,2.80
2019-01-28T09:09:11.878Z,2.80
2019-01-28T09:11:39.452Z,2.80
2019-01-28T09:14:07.021Z,2.90
2019-01-28T09:16:34.553Z,2.90
2019-01-28T09:19:02.106Z,2.90
2019-01-28T09:21:29.648Z,2.90
2019-01-28T09:23:57.215Z,2.80
2019-01-28T09:26:24.753Z,2.90
2019-01-28T09:28:52.285Z,2.90
2019-01-28T09:31:20.611Z,2.90
2019-01-28T09:33:48.148Z,2.90
2019-01-28T09:36:15.714Z,2.90
2019-01-28T09:38:43.245Z,2.90
2019-01-28T09:41:11.803Z,2.90
2019-01-28T09:43:39.336Z,3.00
2019-01-28T09:46:06.879Z,3.00
2019-01-28T09:48:34.660Z,2.90
2019-01-28T09:51:02.813Z,3.00
2019-01-28T09:53:30.379Z,3.00
2019-01-28T09:55:57.917Z,3.00
2019-01-28T09:58:25.479Z,3.20
2019-01-28T10:00:53.036Z,3.20
2019-01-28T10:03:20.595Z,3.40
2019-01-28T10:05:48.137Z,3.50
2019-01-28T10:08:15.706Z,3.50
2019-01-28T10:10:43.259Z,3.40
2019-01-28T10:13:10.816Z,3.40
2019-01-28T10:15:38.415Z,3.50
2019-01-28T10:18:06.857Z,3.40
2019-01-28T10:20:37.145Z,3.40
2019-01-28T10:23:05.440Z,3.30
2019-01-28T10:25:33.007Z,3.30
2019-01-28T10:28:00.539Z,3.10
2019-01-28T10:30:29.638Z,3.10
2019-01-28T10:32:57.204Z,3.10
2019-01-28T10:35:24.747Z,3.10
2019-01-28T10:37:52.358Z,3.10
2019-01-28T10:40:19.899Z,3.10
2019-01-28T10:42:47.461Z,3.20
2019-01-28T10:45:15.001Z,3.10
2019-01-28T10:47:43.539Z,3.20
2019-01-28T10:50:13.723Z,3.10
2019-01-28T10:52:41.291Z,3.00
2019-01-28T10:55:08.827Z,3.00
2019-01-28T10:57:36.400Z,3.10
2019-01-28T11:00:05.592Z,3.10
2019-01-28T11:02:34.147Z,3.10
2019-01-28T11:05:01.701Z,3.00
2019-01-28T11:07:29.235Z,2.90
2019-01-28T11:09:57.693Z,3.10
2019-01-28T11:12:25.226Z,3.10
2019-01-28T11:14:53.163Z,3.10
2019-01-28T11:17:20.750Z,3.10
2019-01-28T11:19:48.350Z,3.10
2019-01-28T11:22:16.685Z,3.10
2019-01-28T11:24:44.368Z,3.10
2019-01-28T11:27:12.037Z,3.10
2019-01-28T11:29:39.693Z,3.10
2019-01-28T11:32:07.347Z,3.20
2019-01-28T11:34:35.837Z,3.30
2019-01-28T11:37:04.282Z,3.30
2019-01-28T11:39:32.022Z,3.30
2019-01-28T11:41:59.451Z,3.30
2019-01-28T11:44:27.019Z,3.40
2019-01-28T11:46:54.559Z,3.40
2019-01-28T11:49:22.276Z,3.50
2019-01-28T11:51:49.727Z,3.50
2019-01-28T11:54:17.268Z,3.30
2019-01-28T11:56:44.834Z,3.40
2019-01-28T11:59:12.369Z,3.40
2019-01-28T12:01:39.932Z,3.50
2019-01-28T12:04:07.535Z,3.50
2019-01-28T12:06:35.106Z,3.60
2019-01-28T12:09:02.647Z,3.40
2019-01-28T12:11:30.183Z,3.50
2019-01-28T12:13:58.711Z,3.50
2019-01-28T12:16:26.292Z,3.50
2019-01-28T12:18:53.868Z,3.70
2019-01-28T12:21:21.409Z,3.70
2019-01-28T12:23:48.971Z,3.80
2019-01-28T12:26:16.503Z,3.90
2019-01-28T12:28:44.064Z,4.00
2019-01-28T12:31:11.599Z,3.90
2019-01-28T12:33:39.899Z,4.00
2019-01-28T12:36:07.467Z,3.90
2019-01-28T12:38:34.997Z,4.00
2019-01-28T12:41:02.563Z,3.90
2019-01-28T12:43:30.095Z,3.80
2019-01-28T12:45:57.654Z,3.90
2019-01-28T12:48:25.196Z,3.90
2019-01-28T12:50:52.734Z,3.90
2019-01-28T12:53:20.300Z,3.70
2019-01-28T12:55:47.895Z,3.60
2019-01-28T12:58:15.447Z,3.80
2019-01-28T13:00:43.753Z,3.80
2019-01-28T13:03:11.321Z,3.70
2019-01-28T13:05:38.859Z,3.80
2019-01-28T13:08:06.415Z,3.70
2019-01-28T13:10:33.956Z,3.70
2019-01-28T13:13:02.272Z,3.70
2019-01-28T13:15:30.633Z,3.70
2019-01-28T13:17:58.169Z,3.80
2019-01-28T13:20:25.731Z,3.70
2019-01-28T13:22:53.299Z,3.60
2019-01-28T13:25:28.790Z,3.70
2019-01-28T13:27:56.346Z,3.80
2019-01-28T13:30:25.329Z,3.90
2019-01-28T13:32:52.898Z,3.80
2019-01-28T13:35:20.460Z,3.60
2019-01-28T13:37:48.014Z,3.50
2019-01-28T13:40:15.543Z,3.40
2019-01-28T13:42:43.109Z,3.40
2019-01-28T13:45:11.758Z,3.50
2019-01-28T13:47:39.291Z,3.40
2019-01-28T13:50:08.352Z,3.20
2019-01-28T13:52:35.892Z,3.20
2019-01-28T13:55:03.465Z,3.00
2019-01-28T13:57:30.995Z,3.00
2019-01-28T13:59:58.551Z,3.10
2019-01-28T14:02:26.084Z,3.20
2019-01-28T14:04:53.644Z,3.10
2019-01-28T14:07:21.233Z,2.70
2019-01-28T14:09:48.784Z,2.60
2019-01-28T14:12:17.337Z,2.40
2019-01-28T14:14:44.867Z,2.30
2019-01-28T14:17:13.374Z,2.20
2019-01-28T14:19:46.346Z,2.20
2019-01-28T14:22:08.511Z,2.30
2019-01-28T14:24:36.053Z,2.30
2019-01-28T14:27:03.611Z,2.30
2019-01-28T14:29:31.175Z,2.30
2019-01-28T14:31:58.704Z,2.40
2019-01-28T14:34:27.028Z,2.20
2019-01-28T14:36:54.556Z,2.20
2019-01-28T14:39:22.120Z,2.10
2019-01-28T14:41:49.654Z,2.10
2019-01-28T14:44:17.214Z,2.20
2019-01-28T14:46:45.521Z,2.00
2019-01-28T14:49:13.079Z,2.00
2019-01-28T14:51:40.647Z,2.00
2019-01-28T14:54:08.192Z,2.10
2019-01-28T14:56:35.757Z,2.10
2019-01-28T14:59:03.301Z,2.10
2019-01-28T15:01:30.833Z,2.20
2019-01-28T15:03:58.400Z,2.20
2019-01-28T15:06:25.963Z,2.30
2019-01-28T15:08:53.548Z,2.60
2019-01-28T15:11:21.095Z,2.50
2019-01-28T15:13:48.854Z,2.40
2019-01-28T15:16:16.391Z,2.30
2019-01-28T15:18:43.958Z,2.20
2019-01-28T15:21:11.524Z,2.10
2019-01-28T15:23:39.089Z,2.20
2019-01-28T15:26:06.624Z,2.20
2019-01-28T15:28:34.197Z,2.10
2019-01-28T15:31:01.809Z,2.20
2019-01-28T15:33:29.389Z,2.30
2019-01-28T15:35:56.923Z,2.50
2019-01-28T15:38:24.453Z,2.20
2019-01-28T15:40:52.014Z,2.20
2019-01-28T15:43:19.547Z,2.30
2019-01-28T15:45:47.103Z,2.40
2019-01-28T15:48:14.665Z,2.50
2019-01-28T15:50:42.206Z,2.30
2019-01-28T15:53:10.760Z,2.40
2019-01-28T15:55:38.334Z,2.40
2019-01-28T15:58:05.871Z,2.30
2019-01-28T16:00:33.427Z,2.20
2019-01-28T16:03:00.988Z,2.20
2019-01-28T16:05:29.304Z,2.00
2019-01-28T16:07:56.859Z,2.00
2019-01-28T16:10:24.402Z,1.90
2019-01-28T16:12:51.992Z,1.90
2019-01-28T16:15:22.438Z,1.80
2019-01-28T16:17:51.002Z,1.70
2019-01-28T16:20:19.312Z,1.80
2019-01-28T16:22:47.731Z,1.80
2019-01-28T16:25:15.279Z,1.80
2019-01-28T16:27:42.819Z,1.80
2019-01-28T16:30:10.392Z,1.80
2019-01-28T16:32:37.932Z,1.90
2019-01-28T16:35:05.491Z,2.00
2019-01-28T16:37:33.023Z,2.00
2019-01-28T16:40:02.332Z,2.00
2019-01-28T16:42:30.633Z,2.00
2019-01-28T16:44:58.201Z,2.00
2019-01-28T16:47:25.759Z,2.00
2019-01-28T16:49:53.297Z,1.90
2019-01-28T16:52:20.857Z,1.90
2019-01-28T16:54:48.400Z,1.90
2019-01-28T16:57:15.959Z,1.90
2019-01-28T16:59:44.391Z,1.90
2019-01-28T17:02:11.957Z,1.80
2019-01-28T17:04:40.255Z,1.80
2019-01-28T17:07:08.587Z,1.90
2019-01-28T17:09:36.147Z,1.80
2019-01-28T17:12:03.686Z,1.90
2019-01-28T17:14:31.247Z,1.90
2019-01-28T17:16:58.824Z,1.90
2019-01-28T17:19:26.387Z,2.00
2019-01-28T17:21:53.919Z,2.10
2019-01-28T17:24:21.484Z,2.00
2019-01-28T17:26:49.066Z,2.10
2019-01-28T17:29:16.613Z,2.10
2019-01-28T17:31:44.179Z,2.20
2019-01-28T17:34:11.719Z,2.10
2019-01-28T17:36:39.285Z,2.10
2019-01-28T17:39:06.827Z,2.30
2019-01-28T17:41:34.398Z,2.10
2019-01-28T17:44:01.967Z,2.00
2019-01-28T17:46:29.509Z,2.10
2019-01-28T17:48:57.079Z,2.10
2019-01-28T17:51:24.613Z,2.00
2019-01-28T17:53:52.181Z,1.90
2019-01-28T17:56:19.720Z,1.90
2019-01-28T17:58:47.387Z,1.90
2019-01-28T18:01:14.923Z,2.00
2019-01-28T18:03:42.464Z,2.00
2019-01-28T18:06:10.031Z,2.00
2019-01-28T18:08:37.588Z,1.90
2019-01-28T18:11:05.159Z,1.90
2019-01-28T18:13:32.698Z,2.00
2019-01-28T18:16:01.023Z,2.00
2019-01-28T18:18:28.564Z,2.00
2019-01-28T18:20:56.127Z,2.10
2019-01-28T18:23:23.672Z,2.00
2019-01-28T18:25:51.205Z,2.00
2019-01-28T18:28:19.758Z,2.10
2019-01-28T18:30:47.291Z,2.10
2019-01-28T18:33:14.874Z,2.20
2019-01-28T18:35:42.407Z,2.40
2019-01-28T18:38:09.968Z,2.30
2019-01-28T18:40:37.497Z,2.30
2019-01-28T18:43:05.035Z,2.30
2019-01-28T18:45:32.597Z,2.30
2019-01-28T18:48:00.131Z,2.40
2019-01-28T18:50:28.466Z,2.40
2019-01-28T18:52:56.008Z,2.40
2019-01-28T18:55:23.570Z,2.40
2019-01-28T18:57:51.111Z,2.50
2019-01-28T19:00:25.199Z,2.50
2019-01-28T19:02:52.753Z,2.50
2019-01-28T19:05:35.906Z,2.60
2019-01-28T19:11:03.584Z,2.70
2019-01-28T19:13:37.095Z,2.60
2019-01-28T19:16:08.484Z,2.50
2019-01-28T19:18:38.819Z,2.60
2019-01-28T19:21:16.295Z,2.60
2019-01-28T19:23:44.630Z,2.70
2019-01-28T19:26:12.167Z,2.70
2019-01-28T19:28:39.724Z,2.70
2019-01-28T19:31:07.260Z,2.70
2019-01-28T19:33:34.822Z,2.80
2019-01-28T19:36:02.351Z,2.60
2019-01-28T19:38:29.919Z,2.70
2019-01-28T19:40:57.458Z,2.70
2019-01-28T19:43:24.992Z,2.60
2019-01-28T19:45:52.559Z,2.60
2019-01-28T19:48:20.096Z,2.40
2019-01-28T19:50:47.650Z,2.40
2019-01-28T19:53:15.211Z,2.40
2019-01-28T19:55:42.751Z,2.50
2019-01-28T19:58:10.289Z,2.40
2019-01-28T20:00:37.859Z,2.30
2019-01-28T20:03:05.421Z,2.20
2019-01-28T20:05:32.985Z,2.30
2019-01-28T20:08:00.560Z,2.20
2019-01-28T20:10:28.101Z,2.30
2019-01-28T20:12:55.632Z,2.30
2019-01-28T20:15:23.205Z,2.30
2019-01-28T20:17:50.744Z,2.20
2019-01-28T20:20:18.307Z,2.10
2019-01-28T20:22:45.897Z,2.00
2019-01-28T20:25:13.474Z,2.00
2019-01-28T20:27:41.081Z,2.00
2019-01-28T20:30:11.226Z,2.00
2019-01-28T20:32:38.791Z,2.00
2019-01-28T20:35:06.332Z,2.00
2019-01-28T20:37:33.899Z,1.90
2019-01-28T20:40:01.431Z,1.90
2019-01-28T20:42:29.002Z,1.90
2019-01-28T20:44:56.535Z,2.00
2019-01-28T20:47:24.887Z,1.90
2019-01-28T20:49:53.240Z,1.90
2019-01-28T20:52:20.767Z,1.80
2019-01-28T20:54:48.331Z,1.90
2019-01-28T20:57:16.063Z,1.80
2019-01-28T20:59:43.622Z,1.90
2019-01-28T21:02:11.193Z,1.90
2019-01-28T21:04:38.768Z,1.90
2019-01-28T21:07:06.346Z,1.80
2019-01-28T21:09:34.891Z,1.90
2019-01-28T21:12:02.468Z,2.00
2019-01-28T21:14:30.007Z,2.00
2019-01-28T21:16:57.623Z,2.10
2019-01-28T21:19:25.159Z,2.10
2019-01-28T21:21:52.996Z,2.10
2019-01-28T21:24:20.658Z,2.10
2019-01-28T21:26:48.224Z,2.20
2019-01-28T21:29:15.803Z,2.20
2019-01-28T21:31:43.343Z,2.20
2019-01-28T21:34:11.896Z,2.20
2019-01-28T21:36:44.880Z,2.00
2019-01-28T21:39:12.454Z,1.90
2019-01-28T21:41:39.992Z,1.80
2019-01-28T21:44:07.674Z,1.90
2019-01-28T21:46:35.207Z,1.90
2019-01-28T21:49:02.773Z,2.00
2019-01-28T21:51:30.338Z,2.00
2019-01-28T21:53:57.871Z,1.80
2019-01-28T21:56:25.431Z,1.80
2019-01-28T21:58:52.978Z,2.10
2019-01-28T22:01:20.538Z,2.00
2019-01-28T22:03:48.848Z,2.10
2019-01-28T22:06:16.417Z,2.10
2019-01-28T22:08:43.975Z,2.10
2019-01-28T22:11:11.506Z,2.10
2019-01-28T22:13:39.067Z,2.00
2019-01-28T22:16:06.623Z,1.90
2019-01-28T22:18:34.192Z,2.00
2019-01-28T22:21:01.767Z,2.00
2019-01-28T22:23:29.303Z,2.10
2019-01-28T22:25:56.869Z,2.20
2019-01-28T22:28:24.429Z,2.20
2019-01-28T22:30:51.991Z,2.10
2019-01-28T22:33:19.532Z,2.00
2019-01-28T22:35:47.100Z,1.90
2019-01-28T22:38:15.570Z,1.90
2019-01-28T22:40:43.112Z,2.00
2019-01-28T22:43:10.676Z,1.80
2019-01-28T22:45:38.236Z,1.80
2019-01-28T22:48:05.783Z,1.70
2019-01-28T22:50:33.347Z,2.00
2019-01-28T22:53:01.041Z,2.20
2019-01-28T22:55:28.583Z,2.10
2019-01-28T22:57:56.148Z,1.90
2019-01-28T23:00:37.473Z,1.80
2019-01-28T23:03:05.049Z,1.80
2019-01-28T23:05:32.632Z,1.50
2019-01-28T23:08:00.172Z,1.60
2019-01-28T23:10:27.739Z,1.70
2019-01-28T23:12:55.281Z,1.70
2019-01-28T23:15:22.855Z,1.70
2019-01-28T23:17:50.403Z,1.70
2019-01-28T23:20:17.987Z,1.50
2019-01-28T23:22:45.527Z,1.50
2019-01-28T23:25:13.074Z,1.40
2019-01-28T23:27:40.647Z,1.40
2019-01-28T23:30:08.186Z,1.50
2019-01-28T23:32:35.756Z,1.40
2019-01-28T23:35:03.303Z,1.50
2019-01-28T23:37:30.894Z,1.60
2019-01-28T23:39:58.443Z,1.50
2019-01-28T23:42:26.009Z,1.30
2019-01-28T23:44:53.556Z,1.40
2019-01-28T23:47:21.134Z,1.40
2019-01-28T23:49:48.701Z,1.40
2019-01-28T23:52:24.503Z,1.30
2019-01-28T23:54:43.874Z,1.50
2019-01-28T23:57:11.415Z,1.50
2019-01-28T23:59:38.986Z,1.60
